Aktualne dane pomiarowe

Uwaga, wersja testowa! Automatyczne pobieranie danych za pomocą narzędzi lub skryptów to umożliwiających jest zabronione.

Dane meteo z obszaru Polski uzyskane na podstawie depesz SYNOP pobieranych co godzinę z NWS. Najedź myszką na symbol przedstawiony w tabeli, aby uzyskać informacje co do jego znaczenia. Prosimy pamiętać, że to testowa wersja strony, która jeszcze nie jest ukończona. Stworzono również jest krótki FAQ dotyczący korzystania z tej podstrony Anomalie temperatury w chwili obecnej odniesione są do okresu referencyjnego 1951-2016. Okres ten będzie później zmieniony na 1981-2010. Kliknij ikonę aby pobrać plik CSV. Kliknij ikonę aby wygenerować mapę synoptyczną dla danego terminu.

Wybierz Datę:    

        

Bielsko-Biała (12600)

Dane terminowe dla wybranej stacji. Kliknij datę, aby otrzymać dane z tego terminu dla wszystkich stacji.

TemperaturaZachmurzenieWiatrCiśnienieOpadyPogoda
 Data t td wb tx tn tg rh  Nt Nl Cl Cm Ch ws wd g1 g2 wx mslp ppp ch 24h 12h t ww ww w1 w2  
2019-07-20 23:00:00 23.5 14.5 17.7--- 5730.0wx-wx4wx--41015.9 970.2 -0.1----22----
2019-07-20 22:00:00 20.5 15.3 17.0--- 7220.0wx-wx4wx--41016.7 970.5 0.5----22----
2019-07-20 21:00:00 20.8 14.9 16.9--- 6930.0wx-wx4wx---1016.3 970.2 0.4---------
2019-07-20 20:00:00 19.7 14.1 16.0--- 7030.0wxwxwxwxwx2wx--21016.6 970.3 0.5---------
2019-07-20 19:00:00 20.9 14.3 16.6--- 6630.0wxwxwxwxwx2wx--21016.1 970.0 0.3---------
2019-07-20 18:00:00 23.8 15.3 18.3 28.0 17.7- 5930.0wxwxwxwx2wx--21015.4 969.8 -0.2- 0.012------
2019-07-20 17:00:00 26.5 13.3 18.3--- 4440.0wxwxwxwxwx1wx--11015.0 969.8 -0.4---------
2019-07-20 16:00:00 27.7 12.5 18.4--- 3940.0wxwxwxwx3wx--31014.7 969.7 -0.8---------
2019-07-20 15:00:00 27.0 13.7 18.7--- 4440.0wxwxwxwx2wx---1015.1 970.0 -0.7---------
2019-07-20 14:00:00 27.5 13.4 18.8--- 4240.0wxwxwxwx1wx--11015.3 970.2 -0.9---------
2019-07-20 13:00:00 26.2 12.3 17.7--- 4240.0wxwxwxwx1wx--11015.8 970.5 -0.8---------
2019-07-20 12:00:00 26.3 12.7 18.0--- 4340.0wxwxwxwxwx1wx--11016.0 970.7 -0.7- 0.06------
2019-07-20 11:00:00 25.2 12.8 17.6--- 4640.0wxwxwxwx2wx--21016.6 971.1 -0.3---------
2019-07-20 10:00:00 24.3 13.5 17.5--- 5140.0wxwxwxwxwx1wx--11016.9 971.3 -0.1---------
2019-07-20 09:00:00 23.5 13.7 17.3--- 5430.0wx-wx2wx--21017.2 971.4 0.1---------
2019-07-20 08:00:00 22.4 13.2 16.6--- 5630.0wx-wx1wx--11017.3 971.4 0.6---------
2019-07-20 07:00:00 20.8 14.2 16.5--- 6625.0wxwxwxwx1wx--11017.6 971.4 0.8---------
2019-07-20 06:00:00 17.7 13.8 15.1 19.9 14.7 13 7825.0wxwxwx2wx--21018.0 971.3 0.6 8.7-12wx-w1- 8.3
2019-07-20 05:00:00 16.7 14.2 15.0--- 8520.0wxwxwx1wx---1017.6 970.8 0.5---------
2019-07-20 04:00:00 15.8 13.5 14.2--- 8620.0wxwxwx2wx--21017.6 970.6 0.6---wx---
2019-07-20 03:00:00 15.3 13.1 13.8--- 8730.0wxwxwxwx2wx--21017.8 970.7 0.6---------
2019-07-20 02:00:00 15.2 12.7 13.5--- 8530.0wxwxwxwxwx2wx--21017.4 970.3 0.2---------
2019-07-20 01:00:00 15.4 12.7 13.6--- 8430.0wxwxwxwx2wx--21017.0 970.0 -0.2---------
2019-07-20 00:00:00 16.8 13.1 14.3--- 7930.0wxwxwx1wx--11016.9 970.1 -0.1--6wx-w1--
2019-07-19 23:00:00 16.3 13.6 14.4--- 8420.0wxwxwx2wx---1017.0 970.1 0.0---------
2019-07-19 22:00:00 16.7 14.0 14.8--- 8420.0wxwxwx2wx--21017.0 970.2 0.5---wx---
2019-07-19 21:00:00 18.9 13.3 15.3--- 7030.0wxwxwx4wx--41016.6 970.2 0.8---wx---
2019-07-19 20:00:00 19.2 12.5 14.9--- 6530.0wxwxwx4wx--41016.5 970.1 0.4---------
2019-07-19 19:00:00 17.1 13.8 14.9--- 8130.0wxwxwxwxwx3wx--31016.4 969.7 0.1---------
2019-07-19 18:00:00 17.2 14.3 15.2 27.3 16.4- 8330.0wxwxwxwxwx4wx-1041016.1 969.4 -1.0- 9.012wx-w1w2--
2019-07-19 17:00:00 17.4 14.3 15.3--- 8230.0wxwxwxwx5wx--51016.4 969.7 0.4---------
2019-07-19 16:00:00 17.0 14.1 15.0--- 8320.0wxwxwx5wx--51016.3 969.6 1.1---wx---
2019-07-19 15:00:00 16.6 14.2 14.9--- 8610.0wxwxwx4wx-1041017.2 970.4 2.1---wx-w1--
2019-07-19 14:00:00 18.8 13.4 15.3--- 7120.0wxwxwx2wx--21015.7 969.3 0.9---wx-w1w2--
2019-07-19 13:00:00 21.3 11.6 15.4--- 5430.0wxwxwxwx4wx-1041014.5 968.5 -0.2---wx-w1--
2019-07-19 12:00:00 25.6 9.0 16.0--- 3540.0wxwxwxwxwx3wx--31013.6 968.3 -0.6- 0.06------
2019-07-19 11:00:00 26.6 9.9 16.8--- 3540.0wxwxwxwx2wx--21013.5 968.4 -0.5---------
2019-07-19 10:00:00 25.8 7.8 15.6--- 3240.0wxwxwxwx4wx--41014.0 968.7 -0.1---------
2019-07-19 09:00:00 24.7 10.9 16.5--- 4240.0wxwxwxwxwx3wx--31014.4 968.9 0.3---------
2019-07-19 08:00:00 24.0 11.3 16.4--- 4540.0wxwxwxwxwx4wx--41014.5 968.9 0.4---------
2019-07-19 07:00:00 23.0 11.7 16.1--- 4940.0wxwxwxwxwx1wx--11014.5 968.8 0.5---------
2019-07-19 06:00:00 19.5 11.3 14.4 21.1 12.6 11 5940.0wx-wx2wx--21014.9 968.6 0.3- 0.012-22--- 11.1
2019-07-19 05:00:00 16.7 10.1 12.6--- 6540.0wxwxwxwx3wx--31015.2 968.5 0.2----22----
2019-07-19 04:00:00 14.5 9.3 11.3--- 7150.0wxwxwxwx3wx--31015.4 968.3 0.1----22----
2019-07-19 03:00:00 13.6 8.8 10.6--- 7350.0wxwxwxwxwx3wx--31015.5 968.3 0.0----22----
2019-07-19 02:00:00 14.3 8.9 11.0--- 7040.0wxwxwxwxwx3wx--31015.4 968.3 0.1----22----
2019-07-19 01:00:00 14.3 9.5 11.3--- 7340.0wxwxwxwx3wx--31015.3 968.2 0.1----22----
2019-07-19 00:00:00 13.6 9.2 10.8--- 7540.0wxwxwxwx3wx--31015.5 968.3 0.4- 0.06-22----
1.0 ms

 

Print Friendly, PDF & Email